TimeMST,TemperatureF,Dew PointF,Humidity,Sea Level PressureIn,VisibilityMPH,Wind Direction,Wind SpeedMPH,Gust SpeedMPH,PrecipitationIn,Events,Conditions,WindDirDegrees,DateUTC
12:53 AM,30.9,24.1,76,30.00,10.0,NNE,4.6,-,N/A,,Clear,30,2012-11-30 07:53:00
1:53 AM,28.0,21.9,78,30.02,10.0,ESE,3.5,-,N/A,,Clear,120,2012-11-30 08:53:00
2:53 AM,32.0,24.1,73,30.00,10.0,Calm,Calm,-,N/A,,Clear,0,2012-11-30 09:53:00
3:53 AM,30.9,24.1,76,30.00,10.0,Calm,Calm,-,N/A,,Clear,0,2012-11-30 10:53:00
4:53 AM,28.9,23.0,78,30.03,10.0,East,5.8,-,N/A,,Clear,80,2012-11-30 11:53:00
5:53 AM,30.0,21.9,72,30.01,10.0,ESE,4.6,-,N/A,,Clear,110,2012-11-30 12:53:00
6:53 AM,32.0,21.9,66,30.04,10.0,East,5.8,-,N/A,,Clear,100,2012-11-30 13:53:00
7:53 AM,37.9,25.0,60,30.04,10.0,ENE,4.6,-,N/A,,Clear,60,2012-11-30 14:53:00
8:53 AM,46.0,25.0,44,30.02,10.0,East,5.8,-,N/A,,Clear,100,2012-11-30 15:53:00
9:53 AM,50.0,26.1,39,30.02,10.0,SE,4.6,-,N/A,,Clear,130,2012-11-30 16:53:00
10:53 AM,57.0,27.0,32,29.95,10.0,ESE,6.9,-,N/A,,Clear,120,2012-11-30 17:53:00
11:53 AM,64.0,21.9,20,29.88,10.0,South,16.1,-,N/A,,Clear,190,2012-11-30 18:53:00
12:53 PM,64.9,19.9,18,29.83,10.0,South,15.0,-,N/A,,Clear,190,2012-11-30 19:53:00
1:53 PM,66.9,21.0,17,29.80,10.0,SSW,12.7,-,N/A,,Clear,210,2012-11-30 20:53:00
2:53 PM,64.9,21.9,19,29.79,10.0,SSW,8.1,-,N/A,,Clear,200,2012-11-30 21:53:00
3:53 PM,55.9,24.1,29,29.80,10.0,SE,5.8,-,N/A,,Clear,130,2012-11-30 22:53:00
4:53 PM,55.0,23.0,29,29.80,10.0,SE,9.2,-,N/A,,Clear,140,2012-11-30 23:53:00
5:53 PM,50.0,23.0,35,29.82,10.0,SSE,6.9,-,N/A,,Clear,150,2012-12-01 00:53:00
6:53 PM,51.1,21.9,32,29.81,10.0,SSE,6.9,-,N/A,,Clear,150,2012-12-01 01:53:00
7:53 PM,48.0,21.9,36,29.81,10.0,Calm,Calm,-,N/A,,Clear,0,2012-12-01 02:53:00
8:53 PM,41.0,21.0,45,29.79,10.0,ESE,8.1,-,N/A,,Clear,120,2012-12-01 03:53:00
9:53 PM,41.0,21.9,47,29.79,10.0,ENE,4.6,-,N/A,,Clear,60,2012-12-01 04:53:00
10:53 PM,39.9,21.9,49,29.80,10.0,ENE,4.6,-,N/A,,Clear,70,2012-12-01 05:53:00
11:53 PM,37.0,23.0,57,29.78,10.0,WNW,4.6,-,N/A,,Clear,300,2012-12-01 06:53:00